createdAt,value
2018-07-25T00:01:39.142Z,100.00
2018-07-25T00:04:05.498Z,100.00
2018-07-25T00:06:31.811Z,100.00
2018-07-25T00:08:58.117Z,100.00
2018-07-25T00:11:24.469Z,100.00
2018-07-25T00:13:50.781Z,100.00
2018-07-25T00:16:17.093Z,100.00
2018-07-25T00:18:43.403Z,100.00
2018-07-25T00:21:09.713Z,100.00
2018-07-25T00:23:36.027Z,100.00
2018-07-25T00:26:02.338Z,100.00
2018-07-25T00:28:28.659Z,100.00
2018-07-25T00:30:54.968Z,100.00
2018-07-25T00:33:21.277Z,100.00
2018-07-25T00:35:47.628Z,100.00
2018-07-25T00:38:13.987Z,100.00
2018-07-25T00:40:40.301Z,100.00
2018-07-25T00:43:06.653Z,100.00
2018-07-25T00:45:33.007Z,100.00
2018-07-25T00:47:59.312Z,100.00
2018-07-25T00:50:25.667Z,100.00
2018-07-25T00:52:52.037Z,100.00
2018-07-25T00:55:18.401Z,100.00
2018-07-25T00:57:44.696Z,100.00
2018-07-25T01:00:11.060Z,100.00
2018-07-25T01:02:37.399Z,100.00
2018-07-25T01:05:03.716Z,100.00
2018-07-25T01:07:30.030Z,100.00
2018-07-25T01:09:56.345Z,100.00
2018-07-25T01:12:22.662Z,100.00
2018-07-25T01:14:48.968Z,100.00
2018-07-25T01:17:15.286Z,100.00
2018-07-25T01:19:41.602Z,100.00
2018-07-25T01:22:07.907Z,100.00
2018-07-25T01:24:34.227Z,100.00
2018-07-25T01:27:00.554Z,100.00
2018-07-25T01:29:26.864Z,100.00
2018-07-25T01:31:53.174Z,100.00
2018-07-25T01:34:19.520Z,100.00
2018-07-25T01:36:45.843Z,100.00
2018-07-25T01:39:12.168Z,100.00
2018-07-25T01:41:38.525Z,100.00
2018-07-25T01:44:04.838Z,100.00
2018-07-25T01:46:31.148Z,100.00
2018-07-25T01:48:57.457Z,100.00
2018-07-25T01:51:23.774Z,100.00
2018-07-25T01:53:50.085Z,100.00
2018-07-25T01:56:16.396Z,100.00
2018-07-25T01:58:42.705Z,100.00
2018-07-25T02:01:09.012Z,100.00
2018-07-25T02:03:35.326Z,100.00
2018-07-25T02:06:01.637Z,100.00
2018-07-25T02:08:27.998Z,100.00
2018-07-25T02:10:54.317Z,100.00
2018-07-25T02:13:20.627Z,100.00
2018-07-25T02:15:46.935Z,100.00
2018-07-25T02:18:13.247Z,100.00
2018-07-25T02:20:39.580Z,100.00
2018-07-25T02:23:05.904Z,100.00
2018-07-25T02:25:32.219Z,100.00
2018-07-25T02:27:58.535Z,100.00
2018-07-25T02:30:24.857Z,100.00
2018-07-25T02:32:51.177Z,100.00
2018-07-25T02:35:17.499Z,100.00
2018-07-25T02:37:43.812Z,100.00
2018-07-25T02:40:10.116Z,100.00
2018-07-25T02:42:36.463Z,100.00
2018-07-25T02:45:02.752Z,100.00
2018-07-25T02:47:29.061Z,100.00
2018-07-25T02:49:55.375Z,100.00
2018-07-25T02:52:21.685Z,100.00
2018-07-25T02:54:47.991Z,100.00
2018-07-25T02:57:14.303Z,100.00
2018-07-25T02:59:40.632Z,100.00
2018-07-25T03:02:06.949Z,100.00
2018-07-25T03:04:33.306Z,100.00
2018-07-25T03:06:59.612Z,100.00
2018-07-25T03:09:25.922Z,100.00
2018-07-25T03:11:52.238Z,100.00
2018-07-25T03:14:18.552Z,100.00
2018-07-25T03:16:44.892Z,100.00
2018-07-25T03:19:11.182Z,100.00
2018-07-25T03:21:37.488Z,100.00
2018-07-25T03:24:03.843Z,100.00
2018-07-25T03:26:30.152Z,100.00
2018-07-25T03:28:56.459Z,100.00
2018-07-25T03:31:22.792Z,100.00
2018-07-25T03:33:49.085Z,100.00
2018-07-25T03:36:15.397Z,100.00
2018-07-25T03:38:41.782Z,100.00
2018-07-25T03:41:08.144Z,100.00
2018-07-25T03:43:34.458Z,100.00
2018-07-25T03:46:00.764Z,100.00
2018-07-25T03:48:27.080Z,100.00
2018-07-25T03:50:53.390Z,100.00
2018-07-25T03:53:19.747Z,100.00
2018-07-25T03:55:46.068Z,100.00
2018-07-25T03:58:12.417Z,100.00
2018-07-25T04:00:38.778Z,100.00
2018-07-25T04:03:05.135Z,100.00
2018-07-25T04:05:31.468Z,100.00
2018-07-25T04:07:57.797Z,100.00
2018-07-25T04:10:24.115Z,100.00
2018-07-25T04:12:50.442Z,100.00
2018-07-25T04:15:16.748Z,100.00
2018-07-25T04:17:43.061Z,100.00
2018-07-25T04:20:09.377Z,100.00
2018-07-25T04:22:35.689Z,100.00
2018-07-25T04:25:02.036Z,100.00
2018-07-25T04:27:28.345Z,100.00
2018-07-25T04:29:54.656Z,100.00
2018-07-25T04:32:20.968Z,100.00
2018-07-25T04:34:47.299Z,100.00
2018-07-25T04:37:13.600Z,100.00
2018-07-25T04:39:39.922Z,100.00
2018-07-25T04:42:06.228Z,100.00
2018-07-25T04:44:32.536Z,100.00
2018-07-25T04:46:58.850Z,100.00
2018-07-25T04:49:25.174Z,100.00
2018-07-25T04:51:51.512Z,100.00
2018-07-25T04:54:17.820Z,100.00
2018-07-25T04:56:44.134Z,100.00
2018-07-25T04:59:10.449Z,100.00
2018-07-25T05:01:36.760Z,100.00
2018-07-25T05:04:03.076Z,100.00
2018-07-25T05:06:29.385Z,100.00
2018-07-25T05:08:55.696Z,100.00
2018-07-25T05:11:22.016Z,100.00
2018-07-25T05:13:48.336Z,100.00
2018-07-25T05:16:14.649Z,100.00
2018-07-25T05:18:40.963Z,100.00
2018-07-25T05:21:07.287Z,100.00
2018-07-25T05:23:33.598Z,100.00
2018-07-25T05:25:59.918Z,100.00
2018-07-25T05:28:26.234Z,100.00
2018-07-25T05:30:52.551Z,100.00
2018-07-25T05:33:18.875Z,100.00
2018-07-25T05:35:45.194Z,100.00
2018-07-25T05:38:11.568Z,100.00
2018-07-25T05:40:37.836Z,100.00
2018-07-25T05:43:04.158Z,100.00
2018-07-25T05:45:30.477Z,100.00
2018-07-25T05:47:56.802Z,100.00
2018-07-25T05:50:23.119Z,100.00
2018-07-25T05:52:49.435Z,100.00
2018-07-25T05:55:15.743Z,100.00
2018-07-25T05:57:42.059Z,100.00
2018-07-25T06:00:08.370Z,100.00
2018-07-25T06:02:34.687Z,100.00
2018-07-25T06:05:00.999Z,100.00
2018-07-25T06:07:27.321Z,100.00
2018-07-25T06:09:53.638Z,100.00
2018-07-25T06:12:20.003Z,100.00
2018-07-25T06:14:46.316Z,100.00
2018-07-25T06:17:12.624Z,100.00
2018-07-25T06:19:38.980Z,100.00
2018-07-25T06:22:05.288Z,100.00
2018-07-25T06:24:31.601Z,100.00
2018-07-25T06:26:57.920Z,100.00
2018-07-25T06:29:24.245Z,100.00
2018-07-25T06:31:50.565Z,100.00
2018-07-25T06:34:16.886Z,100.00
2018-07-25T06:36:43.187Z,100.00
2018-07-25T06:39:09.502Z,100.00
2018-07-25T06:41:35.855Z,100.00
2018-07-25T06:44:02.171Z,100.00
2018-07-25T06:46:28.485Z,100.00
2018-07-25T06:48:54.817Z,100.00
2018-07-25T06:51:21.140Z,100.00
2018-07-25T06:53:47.460Z,100.00
2018-07-25T06:56:13.781Z,100.00
2018-07-25T06:58:40.139Z,100.00
2018-07-25T07:01:06.459Z,100.00
2018-07-25T07:03:32.774Z,100.00
2018-07-25T07:05:59.085Z,100.00
2018-07-25T07:08:25.412Z,100.00
2018-07-25T07:10:51.770Z,100.00
2018-07-25T07:13:18.087Z,100.00
2018-07-25T07:15:44.419Z,100.00
2018-07-25T07:18:10.720Z,100.00
2018-07-25T07:20:37.086Z,100.00
2018-07-25T07:23:03.400Z,100.00
2018-07-25T07:25:29.727Z,100.00
2018-07-25T07:27:56.035Z,100.00
2018-07-25T07:30:22.367Z,100.00
2018-07-25T07:32:48.681Z,100.00
2018-07-25T07:35:15.000Z,100.00
2018-07-25T07:37:41.376Z,100.00
2018-07-25T07:40:07.639Z,100.00
2018-07-25T07:42:33.961Z,100.00
2018-07-25T07:45:00.268Z,100.00
2018-07-25T07:47:26.583Z,100.00
2018-07-25T07:49:52.936Z,100.00
2018-07-25T07:52:19.248Z,100.00
2018-07-25T07:54:45.557Z,100.00
2018-07-25T07:57:11.877Z,100.00
2018-07-25T07:59:38.188Z,100.00
2018-07-25T08:02:04.513Z,100.00
2018-07-25T08:04:30.830Z,100.00
2018-07-25T08:06:57.149Z,100.00
2018-07-25T08:09:23.459Z,100.00
2018-07-25T08:11:49.770Z,100.00
2018-07-25T08:14:16.089Z,100.00
2018-07-25T08:16:42.401Z,100.00
2018-07-25T08:19:08.725Z,100.00
2018-07-25T08:21:35.053Z,100.00
2018-07-25T08:24:01.363Z,100.00
2018-07-25T08:26:27.674Z,100.00
2018-07-25T08:28:53.989Z,100.00
2018-07-25T08:31:20.314Z,100.00
2018-07-25T08:33:46.621Z,100.00
2018-07-25T08:36:12.949Z,100.00
2018-07-25T08:38:39.272Z,100.00
2018-07-25T08:41:05.594Z,100.00
2018-07-25T08:43:31.905Z,100.00
2018-07-25T08:45:58.216Z,100.00
2018-07-25T08:48:24.571Z,100.00
2018-07-25T08:50:50.880Z,100.00
2018-07-25T08:53:17.244Z,100.00
2018-07-25T08:55:43.594Z,100.00
2018-07-25T08:58:09.945Z,100.00
2018-07-25T09:00:36.278Z,100.00
2018-07-25T09:03:02.652Z,100.00
2018-07-25T09:05:28.959Z,100.00
2018-07-25T09:07:55.272Z,100.00
2018-07-25T09:10:21.580Z,100.00
2018-07-25T09:12:48.001Z,100.00
2018-07-25T09:15:14.244Z,100.00
2018-07-25T09:17:40.611Z,100.00
2018-07-25T09:20:06.972Z,100.00
2018-07-25T09:22:33.282Z,100.00
2018-07-25T09:24:59.599Z,100.00
2018-07-25T09:27:25.920Z,100.00
2018-07-25T09:29:52.236Z,100.00
2018-07-25T09:32:18.552Z,100.00
2018-07-25T09:34:44.861Z,100.00
2018-07-25T09:37:11.203Z,100.00
2018-07-25T09:39:37.521Z,100.00
2018-07-25T09:42:03.845Z,100.00
2018-07-25T09:44:30.163Z,100.00
2018-07-25T09:46:56.558Z,100.00
2018-07-25T09:49:22.804Z,100.00
2018-07-25T09:51:49.120Z,100.00
2018-07-25T09:54:15.444Z,100.00
2018-07-25T09:56:41.766Z,100.00
2018-07-25T09:59:08.087Z,100.00
2018-07-25T10:01:34.429Z,100.00
2018-07-25T10:04:00.732Z,100.00
2018-07-25T10:06:27.057Z,100.00
2018-07-25T10:08:53.383Z,100.00
2018-07-25T10:11:19.690Z,100.00
2018-07-25T10:13:46.011Z,100.00
2018-07-25T10:16:12.337Z,100.00
2018-07-25T10:18:38.702Z,100.00
2018-07-25T10:21:05.016Z,100.00
2018-07-25T10:23:31.329Z,100.00
2018-07-25T10:25:57.648Z,100.00
2018-07-25T10:28:23.986Z,100.00
2018-07-25T10:30:50.322Z,100.00
2018-07-25T10:33:16.652Z,100.00
2018-07-25T10:35:42.967Z,100.00
2018-07-25T10:38:09.290Z,100.00
2018-07-25T10:40:35.609Z,100.00
2018-07-25T10:43:01.922Z,100.00
2018-07-25T10:45:28.243Z,100.00
2018-07-25T10:47:54.563Z,100.00
2018-07-25T10:50:20.894Z,100.00
2018-07-25T10:52:47.221Z,100.00
2018-07-25T10:55:13.541Z,100.00
2018-07-25T10:57:39.849Z,100.00
2018-07-25T11:00:06.166Z,100.00
2018-07-25T11:02:32.478Z,100.00
2018-07-25T11:04:58.797Z,100.00
2018-07-25T11:07:25.139Z,100.00
2018-07-25T11:09:51.442Z,100.00
2018-07-25T11:12:17.762Z,100.00
2018-07-25T11:14:44.088Z,100.00
2018-07-25T11:17:10.413Z,100.00
2018-07-25T11:19:36.735Z,100.00
2018-07-25T11:22:03.058Z,100.00
2018-07-25T11:24:29.397Z,100.00
2018-07-25T11:26:55.721Z,100.00
2018-07-25T11:29:22.034Z,100.00
2018-07-25T11:31:48.408Z,100.00
2018-07-25T11:34:14.725Z,100.00
2018-07-25T11:36:41.040Z,100.00
2018-07-25T11:39:07.360Z,100.00
2018-07-25T11:41:33.680Z,100.00
2018-07-25T11:43:59.993Z,100.00
2018-07-25T11:46:26.319Z,100.00
2018-07-25T11:48:52.643Z,100.00
2018-07-25T11:51:18.964Z,100.00
2018-07-25T11:53:45.300Z,100.00
2018-07-25T11:56:11.612Z,100.00
2018-07-25T11:58:37.920Z,100.00
2018-07-25T12:01:04.260Z,100.00
2018-07-25T12:03:30.568Z,100.00
2018-07-25T12:05:56.886Z,100.00
2018-07-25T12:08:23.202Z,100.00
2018-07-25T12:10:49.508Z,100.00
2018-07-25T12:13:15.816Z,100.00
2018-07-25T12:15:42.128Z,100.00
2018-07-25T12:18:08.448Z,100.00
2018-07-25T12:20:34.766Z,100.00
2018-07-25T12:23:01.084Z,100.00
2018-07-25T12:25:27.402Z,100.00
2018-07-25T12:27:53.716Z,100.00
2018-07-25T12:30:20.053Z,100.00
2018-07-25T12:32:46.374Z,100.00
2018-07-25T12:35:12.690Z,100.00
2018-07-25T12:37:39.018Z,100.00
2018-07-25T12:40:05.348Z,100.00
2018-07-25T12:42:31.660Z,100.00
2018-07-25T12:44:57.978Z,100.00
2018-07-25T12:47:26.165Z,100.00
2018-07-25T12:49:50.641Z,100.00
2018-07-25T12:52:16.961Z,100.00
2018-07-25T12:54:43.278Z,100.00
2018-07-25T12:57:09.612Z,100.00
2018-07-25T12:59:35.944Z,100.00
2018-07-25T13:02:02.326Z,100.00
2018-07-25T13:04:28.632Z,100.00
2018-07-25T13:06:54.956Z,100.00
2018-07-25T13:09:21.283Z,100.00
2018-07-25T13:11:47.634Z,100.00
2018-07-25T13:14:13.957Z,100.00
2018-07-25T13:16:40.256Z,100.00
2018-07-25T13:19:06.589Z,100.00
2018-07-25T13:21:32.931Z,99.00
2018-07-25T13:23:59.249Z,96.87
2018-07-25T13:26:25.562Z,95.79
2018-07-25T13:28:51.929Z,94.54
2018-07-25T13:31:18.203Z,94.52
2018-07-25T13:33:44.518Z,95.40
2018-07-25T13:36:10.827Z,94.70
2018-07-25T13:38:37.145Z,94.58
2018-07-25T13:41:03.457Z,95.39
2018-07-25T13:43:29.775Z,94.75
2018-07-25T13:45:56.107Z,93.17
2018-07-25T13:48:22.398Z,94.66
2018-07-25T13:50:48.716Z,93.61
2018-07-25T13:53:15.039Z,94.32
2018-07-25T13:55:41.345Z,93.44
2018-07-25T13:58:07.660Z,93.76
2018-07-25T14:00:33.982Z,90.81
2018-07-25T14:03:00.310Z,90.41
2018-07-25T14:05:26.624Z,89.56
2018-07-25T14:07:53.020Z,89.75
2018-07-25T14:10:19.396Z,89.47
2018-07-25T14:12:45.712Z,90.01
2018-07-25T14:15:12.060Z,90.85
2018-07-25T14:17:38.373Z,92.44
2018-07-25T14:20:04.729Z,94.49
2018-07-25T14:22:31.043Z,93.62
2018-07-25T14:24:57.367Z,93.57
2018-07-25T14:27:23.688Z,93.93
2018-07-25T14:29:50.007Z,94.50
2018-07-25T14:32:16.317Z,95.45
2018-07-25T14:34:42.694Z,95.87
2018-07-25T14:37:08.947Z,96.39
2018-07-25T14:39:35.304Z,96.77
2018-07-25T14:42:01.595Z,97.77
2018-07-25T14:44:27.953Z,97.05
2018-07-25T14:46:54.251Z,94.63
2018-07-25T14:49:20.519Z,93.38
2018-07-25T14:51:46.834Z,93.54
2018-07-25T14:54:13.185Z,93.10
2018-07-25T14:56:39.509Z,92.80
2018-07-25T14:59:05.817Z,93.22
2018-07-25T15:01:32.129Z,94.24
2018-07-25T15:03:58.475Z,93.92
2018-07-25T15:06:24.785Z,94.42
2018-07-25T15:08:51.109Z,94.69
2018-07-25T15:11:17.426Z,94.34
2018-07-25T15:13:43.794Z,94.81
2018-07-25T15:16:10.106Z,93.98
2018-07-25T15:18:36.432Z,94.62
2018-07-25T15:21:02.784Z,95.33
2018-07-25T15:23:29.115Z,94.57
2018-07-25T15:25:55.420Z,93.44
2018-07-25T15:28:21.805Z,93.73
2018-07-25T15:30:48.045Z,94.38
2018-07-25T15:33:14.352Z,95.53
2018-07-25T15:35:40.674Z,96.01
2018-07-25T15:38:06.979Z,96.28
2018-07-25T15:40:33.306Z,95.65
2018-07-25T15:42:59.613Z,95.92
2018-07-25T15:45:26.024Z,95.39
2018-07-25T15:47:52.268Z,96.30
2018-07-25T15:50:18.593Z,96.43
2018-07-25T15:52:44.911Z,95.98
2018-07-25T15:55:11.230Z,97.02
2018-07-25T15:57:37.565Z,97.23
2018-07-25T16:00:03.886Z,97.95
2018-07-25T16:02:30.200Z,97.80
2018-07-25T16:04:56.530Z,96.97
2018-07-25T16:07:22.846Z,93.74
2018-07-25T16:09:49.157Z,91.32
2018-07-25T16:12:15.482Z,89.26
2018-07-25T16:14:41.802Z,88.79
2018-07-25T16:17:08.192Z,89.18
2018-07-25T16:19:34.456Z,89.70
2018-07-25T16:22:00.805Z,89.31
2018-07-25T16:24:27.214Z,90.60
2018-07-25T16:26:53.511Z,90.15
2018-07-25T16:29:19.829Z,89.98
2018-07-25T16:31:46.136Z,90.17
2018-07-25T16:34:12.463Z,90.12
2018-07-25T16:36:38.758Z,90.43
2018-07-25T16:39:05.072Z,91.17
2018-07-25T16:41:31.388Z,92.26
2018-07-25T16:43:57.717Z,93.46
2018-07-25T16:46:39.062Z,95.10
2018-07-25T16:49:05.369Z,96.45
2018-07-25T16:51:31.680Z,97.01
2018-07-25T16:53:57.985Z,96.50
2018-07-25T16:56:24.316Z,94.65
2018-07-25T16:58:50.631Z,96.25
2018-07-25T17:01:16.959Z,93.98
2018-07-25T17:03:43.270Z,95.50
2018-07-25T17:06:09.585Z,92.00
2018-07-25T17:08:35.897Z,90.99
2018-07-25T17:11:02.211Z,90.86
2018-07-25T17:13:28.666Z,90.34
2018-07-25T17:15:55.012Z,90.29
2018-07-25T17:18:21.396Z,90.23
2018-07-25T17:20:47.727Z,90.19
2018-07-25T17:23:14.038Z,90.27
2018-07-25T17:25:40.349Z,90.60
2018-07-25T17:28:06.661Z,90.79
2018-07-25T17:30:32.983Z,91.38
2018-07-25T17:32:59.309Z,91.95
2018-07-25T17:35:25.750Z,92.32
2018-07-25T17:37:51.975Z,92.82
2018-07-25T17:40:18.297Z,93.15
2018-07-25T17:42:44.616Z,93.55
2018-07-25T17:45:10.923Z,93.91
2018-07-25T17:47:37.247Z,93.98
2018-07-25T17:50:03.563Z,93.81
2018-07-25T17:52:29.874Z,93.38
2018-07-25T17:54:56.240Z,92.97
2018-07-25T17:57:22.559Z,92.36
2018-07-25T17:59:48.871Z,91.95
2018-07-25T18:02:15.198Z,91.62
2018-07-25T18:04:41.530Z,91.40
2018-07-25T18:07:07.838Z,91.24
2018-07-25T18:09:34.162Z,90.79
2018-07-25T18:12:00.497Z,90.53
2018-07-25T18:14:26.821Z,90.40
2018-07-25T18:16:53.135Z,90.27
2018-07-25T18:19:19.444Z,89.71
2018-07-25T18:21:45.777Z,89.63
2018-07-25T18:24:12.962Z,89.66
2018-07-25T18:26:39.291Z,89.61
2018-07-25T18:29:05.618Z,89.19
2018-07-25T18:31:31.940Z,88.87
2018-07-25T18:33:58.244Z,89.10
2018-07-25T18:36:24.581Z,89.61
2018-07-25T18:38:50.904Z,89.49
2018-07-25T18:41:17.237Z,89.25
2018-07-25T18:43:46.136Z,89.17
2018-07-25T18:46:12.514Z,88.81
2018-07-25T18:51:33.161Z,88.27
2018-07-25T18:56:44.812Z,88.31
2018-07-25T18:59:11.134Z,88.27
2018-07-25T19:01:37.444Z,88.53
2018-07-25T19:04:03.824Z,88.86
2018-07-25T19:06:30.137Z,89.53
2018-07-25T19:08:56.465Z,93.24
2018-07-25T19:11:22.789Z,95.41
2018-07-25T19:13:49.123Z,96.96
2018-07-25T19:16:15.500Z,95.80
2018-07-25T19:18:41.825Z,96.51
2018-07-25T19:21:08.156Z,96.31
2018-07-25T19:23:34.482Z,97.42
2018-07-25T19:26:00.799Z,100.00
2018-07-25T19:28:27.123Z,98.81
2018-07-25T19:30:53.432Z,100.00
2018-07-25T19:33:19.759Z,100.00
2018-07-25T19:35:46.093Z,96.37
2018-07-25T19:38:12.379Z,95.14
2018-07-25T19:40:38.692Z,94.44
2018-07-25T19:43:05.070Z,93.56
2018-07-25T19:45:31.393Z,93.71
2018-07-25T19:47:57.719Z,94.40
2018-07-25T19:50:24.041Z,97.99
2018-07-25T19:55:19.334Z,100.00
2018-07-25T19:57:45.658Z,98.70
2018-07-25T20:00:16.384Z,98.05
2018-07-25T20:02:39.662Z,97.84
2018-07-25T20:05:05.996Z,98.19
2018-07-25T20:07:32.309Z,96.93
2018-07-25T20:09:58.675Z,97.64
2018-07-25T20:12:24.986Z,97.18
2018-07-25T20:14:51.350Z,98.11
2018-07-25T20:17:17.659Z,99.28
2018-07-25T20:19:44.009Z,97.96
2018-07-25T20:22:10.293Z,97.30
2018-07-25T20:24:36.640Z,96.77
2018-07-25T20:27:02.948Z,95.84
2018-07-25T20:29:29.263Z,97.23
2018-07-25T20:31:55.580Z,100.00
2018-07-25T20:34:21.893Z,100.00
2018-07-25T20:36:48.210Z,100.00
2018-07-25T20:39:14.575Z,100.00
2018-07-25T20:41:40.963Z,100.00
2018-07-25T20:44:07.271Z,99.04
2018-07-25T20:46:33.580Z,97.87
2018-07-25T20:48:59.890Z,97.29
2018-07-25T20:51:26.219Z,97.35
2018-07-25T20:53:52.547Z,96.94
2018-07-25T20:56:18.856Z,96.69
2018-07-25T20:58:45.164Z,95.63
2018-07-25T21:01:11.477Z,95.31
2018-07-25T21:03:37.789Z,95.47
2018-07-25T21:06:04.104Z,95.70
2018-07-25T21:08:30.430Z,95.23
2018-07-25T21:10:56.765Z,95.60
2018-07-25T21:13:23.066Z,95.94
2018-07-25T21:15:49.395Z,96.12
2018-07-25T21:18:15.718Z,95.76
2018-07-25T21:20:42.028Z,95.93
2018-07-25T21:23:08.339Z,96.31
2018-07-25T21:25:34.697Z,96.44
2018-07-25T21:28:01.008Z,95.99
2018-07-25T21:30:27.325Z,95.96
2018-07-25T21:32:53.675Z,95.97
2018-07-25T21:35:19.986Z,96.30
2018-07-25T21:37:46.286Z,96.55
2018-07-25T21:40:12.611Z,96.59
2018-07-25T21:42:38.920Z,97.20
2018-07-25T21:45:05.227Z,96.89
2018-07-25T21:47:31.548Z,96.56
2018-07-25T21:49:57.853Z,96.88
2018-07-25T21:52:24.162Z,97.15
2018-07-25T21:54:50.468Z,96.84
2018-07-25T21:57:16.770Z,98.32
2018-07-25T21:59:43.084Z,97.93
2018-07-25T22:02:09.391Z,97.14
2018-07-25T22:04:35.733Z,97.00
2018-07-25T22:07:02.035Z,96.85
2018-07-25T22:09:28.394Z,96.28
2018-07-25T22:11:54.707Z,95.84
2018-07-25T22:14:21.017Z,95.33
2018-07-25T22:16:47.335Z,95.12
2018-07-25T22:19:13.677Z,94.63
2018-07-25T22:21:39.985Z,94.28
2018-07-25T22:24:06.333Z,94.03
2018-07-25T22:26:32.681Z,93.98
2018-07-25T22:28:58.996Z,93.94
2018-07-25T22:31:25.305Z,94.06
2018-07-25T22:33:51.617Z,93.99
2018-07-25T22:36:17.928Z,93.96
2018-07-25T22:38:44.241Z,94.37
2018-07-25T22:41:10.572Z,96.08
2018-07-25T22:43:36.885Z,96.83
2018-07-25T22:46:03.195Z,95.92
2018-07-25T22:48:29.539Z,95.38
2018-07-25T22:50:55.815Z,95.50
2018-07-25T22:53:22.128Z,94.93
2018-07-25T22:55:48.441Z,94.63
2018-07-25T22:58:14.761Z,94.53
2018-07-25T23:00:41.077Z,94.62
2018-07-25T23:03:07.381Z,95.44
2018-07-25T23:05:33.691Z,95.31
2018-07-25T23:07:59.999Z,95.88
2018-07-25T23:10:26.314Z,96.35
2018-07-25T23:12:52.624Z,96.33
2018-07-25T23:15:18.934Z,96.34
2018-07-25T23:17:45.247Z,95.57
2018-07-25T23:20:11.566Z,94.84
2018-07-25T23:22:37.875Z,94.52
2018-07-25T23:25:04.195Z,94.26
2018-07-25T23:27:30.504Z,93.80
2018-07-25T23:29:56.817Z,93.58
2018-07-25T23:32:23.127Z,93.71
2018-07-25T23:34:49.483Z,94.32
2018-07-25T23:37:15.825Z,94.32
2018-07-25T23:39:42.108Z,94.51
2018-07-25T23:42:08.420Z,94.25
2018-07-25T23:44:34.735Z,94.13
2018-07-25T23:47:01.045Z,93.87
2018-07-25T23:49:27.360Z,94.11
2018-07-25T23:51:53.668Z,94.09
2018-07-25T23:54:20.015Z,93.83
2018-07-25T23:56:46.324Z,94.13
2018-07-25T23:59:12.642Z,95.82
